Sturbridge, Massachusetts
Current Conditions -  °F | °C
As of 8:54 AM on Monday 26 Jan 2015 (Local Time) from KORH Reporting Station
Overcast Overcast  
Wind Chill: -4°   Ceiling: 7000
Heat Index:   Visibility: 10mi
Dew Point: -4°   Wind: 9mph
Humidity: 56%   Direction: 30°NNE
Pressure: 30.05"   Gusts: NA
Location:  42.1°N, 72.06°W
Report Text: KORH 261354Z 03008KT 10SM OVC070 M13/M20 A3005 RMK AO2 SLP196 T11281200
Loading
Personal Weather Stations






























Interactive Weather Map New forecast layout! Learn more

10-Day Weather Forecast

Advertisements
Track Severe Weather on mobile